Time;durP1;ratioP1;P1;durP2;ratioP2;P2;SDS_P1;SDS_P2;PMS_P1;PMS_P2;Temp;Humidity;BMP_temperature;BMP_pressure;BME280_temperature;BME280_humidity;BME280_pressure;Samples;Min_cycle;Max_cycle;Signal;HPM_P1;HPM_P2
2023/12/01 00:00:34;;;;;;;60.97;33.10;;;;;;;;;;2613614;54;20507;-75
2023/12/01 00:03:00;;;;;;;56.33;32.90;;;;;;;;;;2612865;39;20833;-75
2023/12/01 00:05:26;;;;;;;68.90;34.10;;;;;;;;;;2612850;39;21182;-74
2023/12/01 00:07:52;;;;;;;62.67;30.20;;;;;;;;;;2612409;54;20439;-75
2023/12/01 00:10:18;;;;;;;53.23;31.53;;;;;;;;;;2612470;54;20516;-75
2023/12/01 00:12:45;;;;;;;62.70;31.57;;;;;;;;;;2612941;54;20431;-75
2023/12/01 00:15:11;;;;;;;61.20;30.63;;;;;;;;;;2614900;54;20407;-83
2023/12/01 00:17:37;;;;;;;60.40;33.47;;;;;;;;;;2614143;54;20407;-82
2023/12/01 00:20:04;;;;;;;68.37;34.27;;;;;;;;;;2613648;39;20822;-83
2023/12/01 00:22:30;;;;;;;55.30;31.73;;;;;;;;;;2613862;54;20403;-83
2023/12/01 00:24:56;;;;;;;57.17;31.00;;;;;;;;;;2613796;54;20432;-82
2023/12/01 00:27:22;;;;;;;61.27;31.90;;;;;;;;;;2613988;54;20437;-82
2023/12/01 00:29:48;;;;;;;62.17;31.90;;;;;;;;;;2613869;54;20445;-83
2023/12/01 00:32:14;;;;;;;52.67;31.43;;;;;;;;;;2613366;54;21299;-83
2023/12/01 00:34:41;;;;;;;53.20;31.00;;;;;;;;;;2613435;54;20453;-73
2023/12/01 00:37:28;;;;;;;56.70;31.70;;;;;;;;;;2612821;54;20438;-73
2023/12/01 00:39:54;;;;;;;61.30;30.13;;;;;;;;;;2612887;54;20441;-73
2023/12/01 00:42:20;;;;;;;62.40;31.67;;;;;;;;;;2613616;39;20934;-73
2023/12/01 00:44:46;;;;;;;68.60;32.60;;;;;;;;;;2612563;54;20406;-73
2023/12/01 00:47:13;;;;;;;55.70;28.53;;;;;;;;;;2613392;54;21244;-73
2023/12/01 00:49:39;;;;;;;57.60;29.77;;;;;;;;;;2612397;54;20383;-74
2023/12/01 00:52:05;;;;;;;54.83;28.83;;;;;;;;;;2612851;54;20405;-73
2023/12/01 00:54:32;;;;;;;60.73;32.77;;;;;;;;;;2613217;39;20787;-73
2023/12/01 00:56:58;;;;;;;53.37;29.30;;;;;;;;;;2612263;54;20420;-73
2023/12/01 00:59:24;;;;;;;59.10;29.30;;;;;;;;;;2613086;31;21049;-73
2023/12/01 01:01:50;;;;;;;61.23;29.00;;;;;;;;;;2612524;54;21089;-73
2023/12/01 01:04:16;;;;;;;55.67;26.87;;;;;;;;;;2612553;54;20423;-73
2023/12/01 01:06:43;;;;;;;54.37;29.03;;;;;;;;;;2614031;39;21359;-73
2023/12/01 01:09:09;;;;;;;57.40;32.17;;;;;;;;;;2612871;39;20929;-73
2023/12/01 01:11:35;;;;;;;61.67;29.40;;;;;;;;;;2613118;39;21096;-76
2023/12/01 01:14:01;;;;;;;56.10;30.00;;;;;;;;;;2612765;54;20392;-72
2023/12/01 01:16:27;;;;;;;63.57;32.40;;;;;;;;;;2613063;54;20502;-73
2023/12/01 01:18:54;;;;;;;48.80;28.20;;;;;;;;;;2612762;54;20458;-73
2023/12/01 01:21:20;;;;;;;49.63;29.00;;;;;;;;;;2612718;54;20410;-73
2023/12/01 01:23:46;;;;;;;60.50;30.17;;;;;;;;;;2612203;54;20414;-72
2023/12/01 01:26:13;;;;;;;80.03;30.50;;;;;;;;;;2612637;54;20406;-73
2023/12/01 01:28:40;;;;;;;51.37;29.63;;;;;;;;;;2611999;39;20770;-73
2023/12/01 01:31:06;;;;;;;62.63;31.70;;;;;;;;;;2612976;54;20394;-73
2023/12/01 01:33:32;;;;;;;54.03;29.07;;;;;;;;;;2612726;54;20418;-73
2023/12/01 01:35:59;;;;;;;45.93;27.33;;;;;;;;;;2612471;47;20423;-73
2023/12/01 01:38:25;;;;;;;49.60;28.10;;;;;;;;;;2612617;54;20443;-73
2023/12/01 01:40:51;;;;;;;54.43;29.00;;;;;;;;;;2612698;54;21297;-73
2023/12/01 01:43:21;;;;;;;58.90;30.23;;;;;;;;;;2611935;54;20414;-73
2023/12/01 01:45:47;;;;;;;49.10;28.50;;;;;;;;;;2612937;46;20462;-75
2023/12/01 01:48:13;;;;;;;61.63;30.93;;;;;;;;;;2612618;54;20453;-76
2023/12/01 01:50:39;;;;;;;52.67;27.20;;;;;;;;;;2612520;47;20532;-74
2023/12/01 01:53:05;;;;;;;52.47;28.90;;;;;;;;;;2612589;54;20418;-75
2023/12/01 01:55:31;;;;;;;47.47;27.57;;;;;;;;;;2612826;39;20867;-75
2023/12/01 01:57:58;;;;;;;61.70;30.73;;;;;;;;;;2612988;54;20404;-75
2023/12/01 02:00:24;;;;;;;49.57;26.30;;;;;;;;;;2613157;54;20407;-74
2023/12/01 02:02:50;;;;;;;60.30;32.03;;;;;;;;;;2612216;54;20438;-74
2023/12/01 02:05:16;;;;;;;51.00;28.33;;;;;;;;;;2611787;54;20390;-74
2023/12/01 02:07:42;;;;;;;54.50;30.00;;;;;;;;;;2613466;39;20831;-74
2023/12/01 02:10:15;;;;;;;48.80;26.73;;;;;;;;;;2612656;54;20419;-75
2023/12/01 02:12:41;;;;;;;57.87;29.90;;;;;;;;;;2613105;54;20435;-74
2023/12/01 02:15:10;;;;;;;53.47;27.07;;;;;;;;;;2611918;47;20400;-74
2023/12/01 02:17:38;;;;;;;58.20;28.27;;;;;;;;;;2612608;54;20446;-75
2023/12/01 02:20:05;;;;;;;52.07;28.63;;;;;;;;;;2612343;47;20518;-75
2023/12/01 02:22:31;;;;;;;56.87;29.30;;;;;;;;;;2611577;54;20427;-75
2023/12/01 02:24:58;;;;;;;56.60;28.53;;;;;;;;;;2612645;54;20449;-75
2023/12/01 02:27:24;;;;;;;55.97;29.57;;;;;;;;;;2612980;39;20878;-74
2023/12/01 02:29:50;;;;;;;48.47;27.27;;;;;;;;;;2612537;54;20520;-74
2023/12/01 02:32:16;;;;;;;57.53;27.57;;;;;;;;;;2612434;54;20403;-75
2023/12/01 02:34:45;;;;;;;52.83;25.03;;;;;;;;;;2612581;54;20490;-75
2023/12/01 02:37:11;;;;;;;55.53;27.90;;;;;;;;;;2612555;54;20398;-75
2023/12/01 02:39:37;;;;;;;49.87;27.00;;;;;;;;;;2613011;54;20447;-76
2023/12/01 02:42:03;;;;;;;55.53;25.43;;;;;;;;;;2614400;54;20414;-76
2023/12/01 02:44:29;;;;;;;54.53;27.43;;;;;;;;;;2614638;54;20440;-74
2023/12/01 02:46:55;;;;;;;56.13;26.43;;;;;;;;;;2614807;54;20420;-74
2023/12/01 02:49:24;;;;;;;50.17;23.60;;;;;;;;;;2614282;54;20412;-74
2023/12/01 02:51:50;;;;;;;57.20;27.43;;;;;;;;;;2614692;54;20421;-74
2023/12/01 02:54:16;;;;;;;49.93;27.57;;;;;;;;;;2614247;54;20402;-70
2023/12/01 02:56:42;;;;;;;52.90;24.47;;;;;;;;;;2614180;54;20399;-70
2023/12/01 02:59:08;;;;;;;49.90;23.70;;;;;;;;;;2614446;39;20754;-70
2023/12/01 03:01:34;;;;;;;43.33;22.57;;;;;;;;;;2614494;39;21066;-70
2023/12/01 03:04:00;;;;;;;46.03;25.27;;;;;;;;;;2613991;54;21383;-70
2023/12/01 03:06:26;;;;;;;54.97;25.67;;;;;;;;;;2614378;54;20494;-70
2023/12/01 03:08:52;;;;;;;41.07;23.63;;;;;;;;;;2614144;54;20434;-70
2023/12/01 03:11:23;;;;;;;41.70;21.60;;;;;;;;;;2614416;54;21322;-70
2023/12/01 03:13:50;;;;;;;44.10;23.63;;;;;;;;;;2614258;54;20434;-70
2023/12/01 03:16:16;;;;;;;46.87;24.67;;;;;;;;;;2614115;54;20402;-70
2023/12/01 03:18:42;;;;;;;45.90;26.83;;;;;;;;;;2614416;54;20423;-70
2023/12/01 03:21:13;;;;;;;48.20;22.50;;;;;;;;;;2614034;54;20442;-69
2023/12/01 03:23:40;;;;;;;55.17;26.83;;;;;;;;;;2613234;54;20391;-70
2023/12/01 03:26:08;;;;;;;44.60;24.13;;;;;;;;;;2614170;54;20409;-70
2023/12/01 03:28:34;;;;;;;42.37;23.80;;;;;;;;;;2613579;54;20430;-74
2023/12/01 03:31:00;;;;;;;45.10;24.67;;;;;;;;;;2614953;39;20788;-70
2023/12/01 03:33:26;;;;;;;43.87;25.10;;;;;;;;;;2614075;47;20439;-70
2023/12/01 03:35:53;;;;;;;48.37;25.50;;;;;;;;;;2614316;54;20419;-70
2023/12/01 03:38:19;;;;;;;53.50;25.43;;;;;;;;;;2613884;54;20399;-70
2023/12/01 03:40:45;;;;;;;43.63;25.87;;;;;;;;;;2614160;39;20886;-70
2023/12/01 03:43:11;;;;;;;43.63;24.10;;;;;;;;;;2614015;54;20419;-70
2023/12/01 03:45:37;;;;;;;44.97;23.13;;;;;;;;;;2614447;46;21056;-80
2023/12/01 03:48:03;;;;;;;47.33;23.70;;;;;;;;;;2614955;31;20902;-81
2023/12/01 03:50:29;;;;;;;50.90;25.70;;;;;;;;;;2613988;54;20424;-78
2023/12/01 03:52:56;;;;;;;44.33;24.27;;;;;;;;;;2613476;54;21282;-78
2023/12/01 03:55:22;;;;;;;42.23;23.97;;;;;;;;;;2613204;54;20546;-80
2023/12/01 03:57:48;;;;;;;40.80;22.87;;;;;;;;;;2614036;54;20386;-78
2023/12/01 04:00:16;;;;;;;42.73;21.90;;;;;;;;;;2613536;51;20400;-79
2023/12/01 04:02:43;;;;;;;44.40;22.60;;;;;;;;;;2613250;54;20420;-80
2023/12/01 04:05:17;;;;;;;45.33;23.50;;;;;;;;;;2615090;54;20388;-84
2023/12/01 04:07:44;;;;;;;41.73;22.57;;;;;;;;;;2615180;47;20430;-84
2023/12/01 04:10:11;;;;;;;45.67;25.10;;;;;;;;;;2616713;46;20592;-83
2023/12/01 04:12:44;;;;;;;40.67;22.30;;;;;;;;;;2616874;54;20424;-83
2023/12/01 04:15:20;;;;;;;40.97;24.10;;;;;;;;;;2616816;47;20432;-82
2023/12/01 04:17:47;;;;;;;45.20;25.10;;;;;;;;;;2617058;54;20426;-82
2023/12/01 04:20:26;;;;;;;44.57;24.03;;;;;;;;;;2615000;54;20421;-83
2023/12/01 04:23:00;;;;;;;44.17;21.37;;;;;;;;;;2614765;51;20418;-84
2023/12/01 04:25:27;;;;;;;56.57;27.20;;;;;;;;;;2615316;54;20411;-84
2023/12/01 04:27:53;;;;;;;51.97;26.60;;;;;;;;;;2614843;54;20434;-83
2023/12/01 04:30:20;;;;;;;55.23;25.27;;;;;;;;;;2614693;47;20422;-86
2023/12/01 04:32:48;;;;;;;57.77;26.30;;;;;;;;;;2614309;54;20407;-84
2023/12/01 04:35:15;;;;;;;45.30;25.47;;;;;;;;;;2613947;54;20963;-83
2023/12/01 04:37:41;;;;;;;46.80;24.27;;;;;;;;;;2614009;54;20382;-85
2023/12/01 04:40:17;;;;;;;45.80;26.80;;;;;;;;;;2615782;39;20834;-82
2023/12/01 04:42:44;;;;;;;53.23;25.83;;;;;;;;;;2614785;54;20441;-83
2023/12/01 04:45:14;;;;;;;48.33;25.47;;;;;;;;;;2614383;54;20443;-84
2023/12/01 04:47:43;;;;;;;47.17;25.50;;;;;;;;;;2613834;54;21011;-83
2023/12/01 04:50:13;;;;;;;45.50;24.10;;;;;;;;;;2614133;54;20418;-84
2023/12/01 04:52:43;;;;;;;44.97;23.67;;;;;;;;;;2614371;54;20415;-83
2023/12/01 04:55:11;;;;;;;41.70;24.83;;;;;;;;;;2613778;54;20394;-72
2023/12/01 04:57:37;;;;;;;40.50;22.67;;;;;;;;;;2612760;54;20916;-73
2023/12/01 05:00:19;;;;;;;28.73;17.20;;;;;;;;;;2612971;54;20991;-73
2023/12/01 05:02:54;;;;;;;23.13;14.50;;;;;;;;;;2612808;54;20428;-73
2023/12/01 05:05:24;;;;;;;28.53;15.73;;;;;;;;;;2612257;47;20467;-74
2023/12/01 05:07:51;;;;;;;22.00;13.97;;;;;;;;;;2613015;54;20442;-73
2023/12/01 05:10:21;;;;;;;19.40;12.50;;;;;;;;;;2613418;47;20405;-72
2023/12/01 05:12:51;;;;;;;26.90;13.43;;;;;;;;;;2612976;54;20457;-73
2023/12/01 05:15:21;;;;;;;24.33;14.43;;;;;;;;;;2613675;39;20806;-76
2023/12/01 05:17:49;;;;;;;19.53;12.40;;;;;;;;;;2612864;54;20394;-75
2023/12/01 05:20:15;;;;;;;21.10;13.23;;;;;;;;;;2613231;54;20425;-76
2023/12/01 05:22:42;;;;;;;18.60;11.10;;;;;;;;;;2613168;39;20872;-76
2023/12/01 05:25:13;;;;;;;20.07;12.90;;;;;;;;;;2612927;54;20432;-79
2023/12/01 05:27:42;;;;;;;25.43;12.87;;;;;;;;;;2613543;47;20432;-79
2023/12/01 05:30:08;;;;;;;21.87;13.43;;;;;;;;;;2613493;47;20436;-78
2023/12/01 05:32:34;;;;;;;20.03;13.23;;;;;;;;;;2613619;54;20411;-78
2023/12/01 05:35:00;;;;;;;30.13;15.30;;;;;;;;;;2613393;39;20804;-75
2023/12/01 05:37:26;;;;;;;29.77;16.23;;;;;;;;;;2613281;46;20426;-75
2023/12/01 05:39:52;;;;;;;25.70;15.63;;;;;;;;;;2611951;54;20537;-75
2023/12/01 05:42:18;;;;;;;23.00;13.30;;;;;;;;;;2612685;54;20511;-75
2023/12/01 05:44:44;;;;;;;23.03;12.97;;;;;;;;;;2612359;54;20426;-75
2023/12/01 05:47:10;;;;;;;26.57;14.63;;;;;;;;;;2612749;54;20956;-74
2023/12/01 05:49:37;;;;;;;23.77;12.10;;;;;;;;;;2612488;54;20967;-75
2023/12/01 05:52:03;;;;;;;20.67;13.77;;;;;;;;;;2612909;54;20424;-75
2023/12/01 05:54:29;;;;;;;26.77;14.70;;;;;;;;;;2612844;54;20417;-75
2023/12/01 05:56:55;;;;;;;25.60;15.00;;;;;;;;;;2613022;47;20406;-75
2023/12/01 05:59:21;;;;;;;27.97;15.00;;;;;;;;;;2612805;54;20508;-76
2023/12/01 06:01:48;;;;;;;29.17;15.10;;;;;;;;;;2611912;54;20417;-75
2023/12/01 06:04:14;;;;;;;35.70;17.90;;;;;;;;;;2610328;54;20427;-77
2023/12/01 06:06:40;;;;;;;36.47;18.70;;;;;;;;;;2612035;54;20427;-76
2023/12/01 06:09:07;;;;;;;34.23;21.27;;;;;;;;;;2611945;47;20415;-75
2023/12/01 06:11:33;;;;;;;34.10;17.37;;;;;;;;;;2611535;54;20530;-76
2023/12/01 06:14:00;;;;;;;44.27;19.73;;;;;;;;;;2629227;36;20438;-78
2023/12/01 06:16:26;;;;;;;42.83;22.53;;;;;;;;;;2611632;54;20407;-77
2023/12/01 06:18:52;;;;;;;40.87;20.20;;;;;;;;;;2612134;54;20415;-76
2023/12/01 06:21:18;;;;;;;39.63;19.53;;;;;;;;;;2611781;39;20810;-76
2023/12/01 06:23:44;;;;;;;35.87;19.80;;;;;;;;;;2611593;54;21409;-77
2023/12/01 06:26:11;;;;;;;47.00;23.33;;;;;;;;;;2612876;54;20407;-76
2023/12/01 06:28:37;;;;;;;44.37;23.23;;;;;;;;;;2612483;54;20417;-75
2023/12/01 06:31:04;;;;;;;38.43;20.10;;;;;;;;;;2612073;54;20514;-75
2023/12/01 06:33:30;;;;;;;44.10;22.40;;;;;;;;;;2611937;54;20462;-75
2023/12/01 06:35:56;;;;;;;42.67;21.43;;;;;;;;;;2612451;39;21002;-76
2023/12/01 06:38:23;;;;;;;45.63;23.23;;;;;;;;;;2611617;54;20455;-76
2023/12/01 06:40:48;;;;;;;43.20;22.63;;;;;;;;;;2611988;54;20582;-76
2023/12/01 06:43:15;;;;;;;41.93;20.40;;;;;;;;;;2609788;47;20431;-77
2023/12/01 06:45:44;;;;;;;40.10;20.80;;;;;;;;;;2611176;54;20435;-79
2023/12/01 06:48:11;;;;;;;48.73;22.73;;;;;;;;;;2610210;47;20538;-80
2023/12/01 06:50:37;;;;;;;46.50;23.23;;;;;;;;;;2611332;39;20814;-78
2023/12/01 06:53:05;;;;;;;40.63;21.53;;;;;;;;;;2611889;39;20935;-77
2023/12/01 06:55:31;;;;;;;43.93;21.30;;;;;;;;;;2612011;54;20456;-78
2023/12/01 06:57:57;;;;;;;40.80;21.40;;;;;;;;;;2611384;54;20475;-80
2023/12/01 07:00:32;;;;;;;39.47;20.03;;;;;;;;;;2612094;54;20418;-79
2023/12/01 07:02:59;;;;;;;40.50;22.50;;;;;;;;;;2611592;54;20419;-80
2023/12/01 07:05:26;;;;;;;35.37;20.40;;;;;;;;;;2612476;39;20869;-80
2023/12/01 07:08:01;;;;;;;42.83;20.27;;;;;;;;;;2612650;47;20447;-80
2023/12/01 07:10:27;;;;;;;37.00;20.27;;;;;;;;;;2613200;54;20533;-79
2023/12/01 07:12:54;;;;;;;46.47;19.20;;;;;;;;;;2612457;54;20392;-80
2023/12/01 07:15:20;;;;;;;40.07;20.27;;;;;;;;;;2613970;54;20402;-84
2023/12/01 07:17:50;;;;;;;38.07;20.80;;;;;;;;;;2612708;54;20399;-84
2023/12/01 07:20:18;;;;;;;30.27;16.33;;;;;;;;;;2613411;54;20402;-85
2023/12/01 07:22:44;;;;;;;31.90;17.60;;;;;;;;;;2614880;54;20482;-83
2023/12/01 07:25:21;;;;;;;38.40;21.43;;;;;;;;;;2613595;54;20410;-85
2023/12/01 07:27:47;;;;;;;43.10;20.40;;;;;;;;;;2614071;54;20411;-83
2023/12/01 07:30:16;;;;;;;39.23;19.03;;;;;;;;;;2614495;54;20395;-83
2023/12/01 07:32:46;;;;;;;35.60;19.70;;;;;;;;;;2613964;54;20381;-84
2023/12/01 07:35:12;;;;;;;44.40;20.60;;;;;;;;;;2614587;46;20422;-82
2023/12/01 07:37:42;;;;;;;42.10;21.40;;;;;;;;;;2614161;54;20417;-84
2023/12/01 07:40:08;;;;;;;40.17;21.53;;;;;;;;;;2613793;47;20545;-84
2023/12/01 07:42:34;;;;;;;47.17;19.90;;;;;;;;;;2614767;54;20419;-84
2023/12/01 07:45:00;;;;;;;40.67;21.97;;;;;;;;;;2614569;54;20434;-84
2023/12/01 07:47:26;;;;;;;40.60;18.97;;;;;;;;;;2614286;54;20399;-83
2023/12/01 07:49:53;;;;;;;38.00;23.50;;;;;;;;;;2615124;54;20383;-85
2023/12/01 07:52:19;;;;;;;41.60;22.77;;;;;;;;;;2615005;47;20439;-86
2023/12/01 07:54:46;;;;;;;42.07;22.87;;;;;;;;;;2613241;54;20453;-71
2023/12/01 07:57:12;;;;;;;46.60;24.00;;;;;;;;;;2612756;54;20431;-70
2023/12/01 07:59:38;;;;;;;44.73;22.27;;;;;;;;;;2610933;54;20387;-71
2023/12/01 08:02:04;;;;;;;41.37;21.20;;;;;;;;;;2612977;47;20447;-70
2023/12/01 08:04:31;;;;;;;44.40;23.63;;;;;;;;;;2613535;54;20419;-70
2023/12/01 08:06:57;;;;;;;46.80;24.30;;;;;;;;;;2613602;47;20424;-71
2023/12/01 08:09:23;;;;;;;43.67;24.57;;;;;;;;;;2612943;39;20883;-70
2023/12/01 08:11:49;;;;;;;49.37;24.80;;;;;;;;;;2611059;39;20790;-72
2023/12/01 08:14:15;;;;;;;46.50;23.43;;;;;;;;;;2608333;47;20414;-71
2023/12/01 08:16:45;;;;;;;40.73;22.97;;;;;;;;;;2612202;47;20453;-70
2023/12/01 08:19:11;;;;;;;40.80;21.17;;;;;;;;;;2611652;54;20429;-70
2023/12/01 08:21:37;;;;;;;49.00;24.23;;;;;;;;;;2610844;54;20423;-69
2023/12/01 08:24:04;;;;;;;42.93;24.50;;;;;;;;;;2610594;54;20435;-85
2023/12/01 08:26:31;;;;;;;47.00;22.47;;;;;;;;;;2612075;46;20434;-82
2023/12/01 08:28:57;;;;;;;45.67;24.17;;;;;;;;;;2613029;54;21067;-85
2023/12/01 08:31:24;;;;;;;47.77;20.73;;;;;;;;;;2613360;39;20786;-84
2023/12/01 08:33:50;;;;;;;42.50;22.60;;;;;;;;;;2613008;54;21131;-85
2023/12/01 08:36:18;;;;;;;42.63;22.77;;;;;;;;;;2633011;36;20411;-86
2023/12/01 08:38:44;;;;;;;46.63;23.70;;;;;;;;;;2614186;39;21601;-86
2023/12/01 08:41:10;;;;;;;49.23;25.50;;;;;;;;;;2614848;54;20434;-84
2023/12/01 08:43:37;;;;;;;45.00;23.97;;;;;;;;;;2614878;54;20435;-84
2023/12/01 08:46:03;;;;;;;45.60;25.30;;;;;;;;;;2614452;54;20414;-84
2023/12/01 08:48:29;;;;;;;56.40;26.63;;;;;;;;;;2612285;54;20395;-84
2023/12/01 08:50:55;;;;;;;46.10;23.67;;;;;;;;;;2615494;54;20438;-83
2023/12/01 08:53:24;;;;;;;45.23;24.00;;;;;;;;;;2615243;54;20402;-83
2023/12/01 08:55:50;;;;;;;50.23;26.50;;;;;;;;;;2616609;54;20487;-84
2023/12/01 08:58:22;;;;;;;54.77;26.93;;;;;;;;;;2615368;54;20413;-85
2023/12/01 09:00:48;;;;;;;48.60;25.67;;;;;;;;;;2615944;54;20469;-84
2023/12/01 09:03:14;;;;;;;45.87;26.83;;;;;;;;;;2615765;54;20442;-85
2023/12/01 09:05:40;;;;;;;48.43;25.87;;;;;;;;;;2612922;39;20938;-74
2023/12/01 09:08:07;;;;;;;41.07;23.17;;;;;;;;;;2613088;54;20434;-75
2023/12/01 09:10:33;;;;;;;45.67;24.93;;;;;;;;;;2612875;54;20567;-73
2023/12/01 09:12:59;;;;;;;44.63;23.97;;;;;;;;;;2612700;39;20809;-73
2023/12/01 09:15:25;;;;;;;47.67;26.77;;;;;;;;;;2610962;54;20409;-73
2023/12/01 09:17:51;;;;;;;45.23;25.90;;;;;;;;;;2612186;54;20426;-73
2023/12/01 09:20:19;;;;;;;60.87;26.37;;;;;;;;;;2612317;47;20532;-73
2023/12/01 09:22:45;;;;;;;50.40;25.20;;;;;;;;;;2612711;54;20433;-73
2023/12/01 09:25:11;;;;;;;56.10;26.20;;;;;;;;;;2612643;54;20431;-73
2023/12/01 09:27:37;;;;;;;61.63;25.77;;;;;;;;;;2611629;54;20986;-73
2023/12/01 09:30:04;;;;;;;35.80;23.53;;;;;;;;;;2612209;54;20407;-74
2023/12/01 09:32:30;;;;;;;42.37;25.17;;;;;;;;;;2612173;47;20457;-73
2023/12/01 09:34:56;;;;;;;45.10;26.30;;;;;;;;;;2612744;54;20406;-73
2023/12/01 09:37:23;;;;;;;52.60;26.00;;;;;;;;;;2611598;54;20386;-73
2023/12/01 09:39:51;;;;;;;47.77;26.70;;;;;;;;;;2612174;47;20504;-72
2023/12/01 09:42:18;;;;;;;47.40;26.80;;;;;;;;;;2612365;54;20976;-72
2023/12/01 09:44:46;;;;;;;46.67;25.10;;;;;;;;;;2612761;31;20925;-73
2023/12/01 09:47:12;;;;;;;50.67;27.70;;;;;;;;;;2612641;54;20384;-71
2023/12/01 09:49:39;;;;;;;41.40;23.30;;;;;;;;;;2610632;54;20418;-73
2023/12/01 09:52:05;;;;;;;41.70;24.13;;;;;;;;;;2611196;54;20411;-73
2023/12/01 09:54:32;;;;;;;50.73;24.67;;;;;;;;;;2612425;54;20406;-73
2023/12/01 09:56:58;;;;;;;52.33;25.13;;;;;;;;;;2611959;54;20395;-73
2023/12/01 09:59:25;;;;;;;47.70;25.73;;;;;;;;;;2611442;54;21011;-74
2023/12/01 10:01:52;;;;;;;46.53;25.47;;;;;;;;;;2612803;47;20446;-73
2023/12/01 10:04:19;;;;;;;47.80;24.73;;;;;;;;;;2611849;54;20420;-73
2023/12/01 10:06:45;;;;;;;44.00;23.20;;;;;;;;;;2611257;47;20419;-73
2023/12/01 10:09:12;;;;;;;51.20;25.80;;;;;;;;;;2612336;54;20387;-73
2023/12/01 10:11:39;;;;;;;50.43;26.17;;;;;;;;;;2611526;54;20415;-73
2023/12/01 10:14:08;;;;;;;45.40;25.83;;;;;;;;;;2612115;47;20436;-70
2023/12/01 10:16:36;;;;;;;46.90;24.70;;;;;;;;;;2612772;54;20407;-70
2023/12/01 10:19:07;;;;;;;47.27;25.20;;;;;;;;;;2611633;47;20462;-70
2023/12/01 10:21:43;;;;;;;45.27;24.50;;;;;;;;;;2612066;54;20407;-71
2023/12/01 10:24:16;;;;;;;58.93;27.80;;;;;;;;;;2612559;54;20386;-71
2023/12/01 10:26:43;;;;;;;35.23;21.83;;;;;;;;;;2612266;54;20646;-71
2023/12/01 10:29:31;;;;;;;36.67;20.20;;;;;;;;;;2612087;54;20500;-70
2023/12/01 10:31:58;;;;;;;35.40;20.60;;;;;;;;;;2612317;54;20436;-70
2023/12/01 10:34:24;;;;;;;37.87;23.93;;;;;;;;;;2612131;47;20432;-70
2023/12/01 10:36:52;;;;;;;45.07;24.83;;;;;;;;;;2611732;54;20436;-70
2023/12/01 10:39:20;;;;;;;40.77;22.60;;;;;;;;;;2611888;54;20438;-70
2023/12/01 10:41:47;;;;;;;44.67;23.57;;;;;;;;;;2611561;47;20419;-70
2023/12/01 10:44:16;;;;;;;38.73;21.83;;;;;;;;;;2612091;54;20951;-73
2023/12/01 10:46:45;;;;;;;39.47;22.20;;;;;;;;;;2611850;54;20415;-73
2023/12/01 10:49:14;;;;;;;42.73;22.50;;;;;;;;;;2610927;47;20406;-73
2023/12/01 10:51:43;;;;;;;43.03;22.93;;;;;;;;;;2611794;54;20506;-74
2023/12/01 10:54:10;;;;;;;41.57;23.80;;;;;;;;;;2610085;54;20418;-73
2023/12/01 10:56:52;;;;;;;41.73;21.37;;;;;;;;;;2611023;54;20498;-72
2023/12/01 10:59:19;;;;;;;42.67;22.90;;;;;;;;;;2612250;54;20414;-73
2023/12/01 11:01:52;;;;;;;40.93;21.30;;;;;;;;;;2611012;47;20437;-73
2023/12/01 11:04:25;;;;;;;46.43;24.57;;;;;;;;;;2612504;54;20407;-74
2023/12/01 11:07:01;;;;;;;43.33;22.87;;;;;;;;;;2612755;54;20414;-73
2023/12/01 11:09:39;;;;;;;43.73;26.00;;;;;;;;;;2613384;54;20417;-74
2023/12/01 11:12:21;;;;;;;48.20;26.47;;;;;;;;;;2612625;54;20473;-71
2023/12/01 11:14:51;;;;;;;43.80;23.93;;;;;;;;;;2612415;47;20423;-74
2023/12/01 11:17:18;;;;;;;53.47;25.83;;;;;;;;;;2612551;54;20423;-72
2023/12/01 11:19:44;;;;;;;50.67;26.07;;;;;;;;;;2611874;54;20409;-73
2023/12/01 11:22:27;;;;;;;49.20;25.27;;;;;;;;;;2611909;54;20541;-72
2023/12/01 11:24:56;;;;;;;41.33;23.63;;;;;;;;;;2612693;54;20402;-71
2023/12/01 11:27:25;;;;;;;45.00;24.23;;;;;;;;;;2612272;54;20399;-73
2023/12/01 11:30:08;;;;;;;42.60;24.43;;;;;;;;;;2612728;54;21484;-73
2023/12/01 11:32:38;;;;;;;39.27;21.53;;;;;;;;;;2613632;54;20514;-73
2023/12/01 11:35:09;;;;;;;38.57;23.30;;;;;;;;;;2612848;54;20502;-74
2023/12/01 11:37:54;;;;;;;38.43;21.90;;;;;;;;;;2613011;54;20476;-73
2023/12/01 11:40:22;;;;;;;39.87;21.23;;;;;;;;;;2613167;54;20446;-72
2023/12/01 11:42:47;;;;;;;41.57;23.43;;;;;;;;;;2612870;39;20634;-73
2023/12/01 11:45:15;;;;;;;35.87;22.60;;;;;;;;;;2612697;47;20414;-73
2023/12/01 11:47:41;;;;;;;35.10;21.03;;;;;;;;;;2612667;54;20486;-75
2023/12/01 11:50:08;;;;;;;36.97;19.87;;;;;;;;;;2613321;39;20821;-73
2023/12/01 11:52:34;;;;;;;40.33;21.97;;;;;;;;;;2612781;54;20415;-73
2023/12/01 11:55:01;;;;;;;32.37;18.47;;;;;;;;;;2612990;47;20417;-70
2023/12/01 11:57:27;;;;;;;34.20;18.83;;;;;;;;;;2612044;54;20422;-71
2023/12/01 11:59:56;;;;;;;39.53;20.50;;;;;;;;;;2612489;54;20449;-72
2023/12/01 12:02:30;;;;;;;41.50;21.10;;;;;;;;;;2611125;54;20374;-70
2023/12/01 12:05:00;;;;;;;37.87;20.37;;;;;;;;;;2611785;47;20426;-70
2023/12/01 12:07:27;;;;;;;37.20;20.30;;;;;;;;;;2612259;39;20474;-71
2023/12/01 12:09:56;;;;;;;33.70;18.80;;;;;;;;;;2612806;54;20955;-71
2023/12/01 12:12:23;;;;;;;32.63;18.00;;;;;;;;;;2610197;54;20436;-71
2023/12/01 12:14:51;;;;;;;40.80;20.57;;;;;;;;;;2612457;39;20830;-71
2023/12/01 12:17:19;;;;;;;33.57;19.70;;;;;;;;;;2611981;47;20550;-71
2023/12/01 12:19:47;;;;;;;33.67;18.13;;;;;;;;;;2612102;54;20395;-71
2023/12/01 12:22:14;;;;;;;31.73;18.87;;;;;;;;;;2611591;47;20410;-71
2023/12/01 12:24:46;;;;;;;29.43;17.27;;;;;;;;;;2612586;54;20399;-70
2023/12/01 12:27:12;;;;;;;35.93;20.67;;;;;;;;;;2612241;54;20395;-71
2023/12/01 12:29:38;;;;;;;36.30;20.40;;;;;;;;;;2612713;54;20386;-71
2023/12/01 12:32:05;;;;;;;33.50;17.40;;;;;;;;;;2612232;54;20928;-71
2023/12/01 12:34:31;;;;;;;37.37;18.03;;;;;;;;;;2612654;54;20436;-81
2023/12/01 12:36:57;;;;;;;34.50;18.40;;;;;;;;;;2612129;54;20427;-81
2023/12/01 12:39:24;;;;;;;32.23;18.00;;;;;;;;;;2611062;47;20415;-80
2023/12/01 12:41:53;;;;;;;31.40;17.63;;;;;;;;;;2613877;39;20776;-81
2023/12/01 12:44:20;;;;;;;30.10;16.97;;;;;;;;;;2612246;54;20399;-82
2023/12/01 12:47:06;;;;;;;26.13;16.80;;;;;;;;;;2613062;54;20415;-79
2023/12/01 12:49:33;;;;;;;35.07;18.90;;;;;;;;;;2613380;54;20409;-82
2023/12/01 12:52:00;;;;;;;36.80;18.20;;;;;;;;;;2614119;39;20799;-82
2023/12/01 12:54:26;;;;;;;32.40;19.30;;;;;;;;;;2613060;54;20486;-81
2023/12/01 12:56:52;;;;;;;29.90;18.03;;;;;;;;;;2612556;54;20439;-82
2023/12/01 12:59:19;;;;;;;29.97;17.43;;;;;;;;;;2613891;46;20997;-81
2023/12/01 13:01:46;;;;;;;35.70;18.23;;;;;;;;;;2613353;54;20488;-82
2023/12/01 13:04:12;;;;;;;34.00;18.20;;;;;;;;;;2612115;54;20398;-74
2023/12/01 13:06:39;;;;;;;37.70;20.97;;;;;;;;;;2609957;54;20411;-74
2023/12/01 13:09:05;;;;;;;39.37;19.37;;;;;;;;;;2612973;54;20498;-75
2023/12/01 13:11:31;;;;;;;39.70;20.00;;;;;;;;;;2612906;54;20398;-74
2023/12/01 13:13:57;;;;;;;29.93;19.83;;;;;;;;;;2612979;54;20406;-74
2023/12/01 13:16:23;;;;;;;32.80;20.70;;;;;;;;;;2611848;47;20437;-75
2023/12/01 13:18:50;;;;;;;32.37;18.77;;;;;;;;;;2609510;54;20988;-75
2023/12/01 13:21:16;;;;;;;29.70;17.67;;;;;;;;;;2609265;39;20802;-75
2023/12/01 13:23:42;;;;;;;32.63;19.00;;;;;;;;;;2609021;54;20430;-74
2023/12/01 13:26:08;;;;;;;31.97;18.00;;;;;;;;;;2609722;54;20387;-74
2023/12/01 13:28:34;;;;;;;32.63;17.70;;;;;;;;;;2609012;54;20423;-74
2023/12/01 13:31:01;;;;;;;28.23;16.10;;;;;;;;;;2608897;54;20573;-74
2023/12/01 13:33:27;;;;;;;25.33;15.43;;;;;;;;;;2609572;54;20407;-74
2023/12/01 13:35:53;;;;;;;28.53;17.63;;;;;;;;;;2610601;54;20431;-73
2023/12/01 13:38:19;;;;;;;29.27;15.67;;;;;;;;;;2608058;47;20399;-74
2023/12/01 13:40:45;;;;;;;33.87;17.43;;;;;;;;;;2608963;54;20586;-73
2023/12/01 13:43:11;;;;;;;24.60;16.80;;;;;;;;;;2608372;54;20406;-74
2023/12/01 13:45:37;;;;;;;33.30;16.47;;;;;;;;;;2609908;54;20410;-74
2023/12/01 13:48:05;;;;;;;32.17;18.97;;;;;;;;;;2612395;54;20451;-74
2023/12/01 13:50:31;;;;;;;26.93;16.27;;;;;;;;;;2613028;47;20541;-75
2023/12/01 13:52:57;;;;;;;30.67;18.07;;;;;;;;;;2612958;54;20458;-74
2023/12/01 13:55:23;;;;;;;34.93;18.97;;;;;;;;;;2612850;54;20447;-75
2023/12/01 13:57:53;;;;;;;29.80;16.17;;;;;;;;;;2611829;54;20462;-75
2023/12/01 14:00:19;;;;;;;28.87;17.27;;;;;;;;;;2612100;39;20835;-74
2023/12/01 14:02:47;;;;;;;26.73;15.73;;;;;;;;;;2607931;54;20439;-73
2023/12/01 14:05:13;;;;;;;38.13;18.07;;;;;;;;;;2608877;47;20974;-74
2023/12/01 14:07:40;;;;;;;29.73;16.50;;;;;;;;;;2608572;54;20427;-75
2023/12/01 14:10:06;;;;;;;32.20;18.70;;;;;;;;;;2612028;54;20523;-74
2023/12/01 14:12:32;;;;;;;32.30;18.40;;;;;;;;;;2612487;47;20431;-76
2023/12/01 14:14:58;;;;;;;29.47;16.87;;;;;;;;;;2612909;54;20379;-71
2023/12/01 14:17:25;;;;;;;29.40;17.37;;;;;;;;;;2608216;54;20407;-71